To NAV CANADA Home Page Login to a new session Search on AWWS site Feedback and Comments Disclaimer Vers la page française équivalente Tips FAQ What's new on the site To the Forecasts and Observations / NOTAM section To "File a Flight Plan" website Publications and other links Update of the User's profile FIC Telephone Numbers My Weather Data Folder Route Weather Data Regional Weather Data Local Weather Data To the Forecasts and Observations / NOTAM section
Request Generated 08/25/2016 at 23:39:06 UTC . Weather information available at that time is displayed.

METAR/TAF

STEPHENVILLE/NL    

SPECI CYJT 252320Z VRB02KT 15SM FEW025 OVC090 21/17 A2988 RMK SC2AC6
SLP119 DENSITY ALT 700FT=
METAR CYJT 252300Z 32006KT 260V340 15SM -SHRA FEW025 OVC090 20/18
A2988 RMK SC2AC6 SLP120 DENSITY ALT 700FT=
SPECI CYJT 252222Z 23010KT 15SM -SHRA FEW022 SCT040 OVC090 21/18
A2988 RMK SC1SC3AC4 SLP119 DENSITY ALT 700FT=
METAR CYJT 252200Z 25007KT 15SM FEW020 SCT040 OVC090 20/17 A2989 RMK
SC2SC2AC4 SLP123 DENSITY ALT 700FT=
SPECI CYJT 252142Z 24009G15KT 15SM FEW020 BKN040 OVC090 20/18 A2989
RMK SC2SC4AC2 SLP124 DENSITY ALT 700FT=
SPECI CYJT 252108Z 28008G15KT 15SM -SHRA SCT020 BKN035 OVC100 20/18
A2990 RMK SC4SC2AC2 SLP126 DENSITY ALT 700FT=
METAR CYJT 252100Z 25011KT 15SM SCT020 BKN040 OVC090 21/18 A2990 RMK
SC4SC2AC2 SLP127 DENSITY ALT 700FT=

TAF CYJT 251743Z 2518/2618 25012G22KT P6SM SCT020 BKN210
FM252300 23008KT P6SM FEW025 BKN100 TEMPO 2523/2606 P6SM -RA
FM260600 23012KT P6SM OVC030 TEMPO 2606/2611 5SM -RA BR SCT008
OVC020
FM261100 23015KT 4SM -RA BR SCT005 OVC015 PROB30 2611/2615 2SM
-RA BR OVC005
FM261500 23015G25KT 11/2SM -RA BR OVC004
RMK NXT FCST BY 260000Z=
Your time UTC time
Weather data provided by Environment Canada and NAV CANADA